createdAt,value
2022-11-16T00:00:50.240Z,990.73
2022-11-16T00:01:50.235Z,990.72
2022-11-16T00:02:50.217Z,990.7
2022-11-16T00:03:50.207Z,990.69
2022-11-16T00:04:50.201Z,990.65
2022-11-16T00:05:50.196Z,990.68
2022-11-16T00:06:50.178Z,990.73
2022-11-16T00:07:50.168Z,990.66
2022-11-16T00:08:50.152Z,990.69
2022-11-16T00:09:50.149Z,990.65
2022-11-16T00:10:50.136Z,990.65
2022-11-16T00:11:50.133Z,990.64
2022-11-16T00:12:50.117Z,990.64
2022-11-16T00:13:50.110Z,990.61
2022-11-16T00:14:50.101Z,990.56
2022-11-16T00:15:50.084Z,990.59
2022-11-16T00:16:50.072Z,990.59
2022-11-16T00:17:50.068Z,990.58
2022-11-16T00:18:50.052Z,990.58
2022-11-16T00:19:50.040Z,990.57
2022-11-16T00:20:50.028Z,990.57
2022-11-16T00:21:50.030Z,990.53
2022-11-16T00:22:50.012Z,990.56
2022-11-16T00:23:49.999Z,990.55
2022-11-16T00:24:49.992Z,990.54
2022-11-16T00:25:49.977Z,990.56
2022-11-16T00:26:49.969Z,990.51
2022-11-16T00:27:49.960Z,990.51
2022-11-16T00:28:49.955Z,990.54
2022-11-16T00:29:49.934Z,990.49
2022-11-16T00:30:49.932Z,990.49
2022-11-16T00:31:49.923Z,990.5
2022-11-16T00:32:49.904Z,990.47
2022-11-16T00:33:49.894Z,990.45
2022-11-16T00:34:49.887Z,990.47
2022-11-16T00:35:49.876Z,990.47
2022-11-16T00:36:49.860Z,990.42
2022-11-16T00:37:49.849Z,990.44
2022-11-16T00:38:49.847Z,990.41
2022-11-16T00:39:49.834Z,990.43
2022-11-16T00:40:49.819Z,990.44
2022-11-16T00:41:49.811Z,990.41
2022-11-16T00:42:49.795Z,990.42
2022-11-16T00:43:49.791Z,990.48
2022-11-16T00:44:49.776Z,990.4
2022-11-16T00:45:49.765Z,990.38
2022-11-16T00:46:49.756Z,990.35
2022-11-16T00:47:49.744Z,990.4
2022-11-16T00:48:49.739Z,990.36
2022-11-16T00:49:49.725Z,990.39
2022-11-16T00:50:49.710Z,990.37
2022-11-16T00:51:49.708Z,990.3
2022-11-16T00:52:49.703Z,990.38
2022-11-16T00:53:49.686Z,990.34
2022-11-16T00:54:49.680Z,990.29
2022-11-16T00:55:49.657Z,990.27
2022-11-16T00:56:49.655Z,990.26
2022-11-16T00:57:49.634Z,990.2
2022-11-16T00:58:49.630Z,990.17
2022-11-16T00:59:49.620Z,990.19
2022-11-16T01:00:49.607Z,990.24
2022-11-16T01:01:49.598Z,990.26
2022-11-16T01:02:49.584Z,990.23
2022-11-16T01:03:49.589Z,990.2
2022-11-16T01:04:49.612Z,990.24
2022-11-16T01:05:49.556Z,990.21
2022-11-16T01:06:49.550Z,990.16
2022-11-16T01:07:49.530Z,990.15
2022-11-16T01:08:49.521Z,990.18
2022-11-16T01:09:49.509Z,990.15
2022-11-16T01:10:49.500Z,990.05
2022-11-16T01:11:49.490Z,990.08
2022-11-16T01:12:49.480Z,990.14
2022-11-16T01:13:49.472Z,990.03
2022-11-16T01:14:49.467Z,990.08
2022-11-16T01:15:49.446Z,990.1
2022-11-16T01:16:49.436Z,990.04
2022-11-16T01:17:49.429Z,989.99
2022-11-16T01:18:49.419Z,990.04
2022-11-16T01:19:49.402Z,990.03
2022-11-16T01:20:49.396Z,989.97
2022-11-16T01:21:49.388Z,989.93
2022-11-16T01:22:49.377Z,990.04
2022-11-16T01:23:49.370Z,990.03
2022-11-16T01:24:49.355Z,989.99
2022-11-16T01:25:49.342Z,989.97
2022-11-16T01:26:49.336Z,989.95
2022-11-16T01:27:49.323Z,989.97
2022-11-16T01:28:49.312Z,989.99
2022-11-16T01:29:49.307Z,989.93
2022-11-16T01:30:49.288Z,989.98
2022-11-16T01:31:49.275Z,989.96
2022-11-16T01:32:49.267Z,989.97
2022-11-16T01:33:49.264Z,989.97
2022-11-16T01:34:49.245Z,989.92
2022-11-16T01:35:49.242Z,989.95
2022-11-16T01:36:49.229Z,989.88
2022-11-16T01:37:49.216Z,989.92
2022-11-16T01:38:49.212Z,989.91
2022-11-16T01:39:49.191Z,989.85
2022-11-16T01:40:49.185Z,989.9
2022-11-16T01:41:49.192Z,989.88
2022-11-16T01:42:49.160Z,989.88
2022-11-16T01:43:49.150Z,989.83
2022-11-16T01:44:49.141Z,989.83
2022-11-16T01:45:49.127Z,989.8
2022-11-16T01:46:49.123Z,989.8
2022-11-16T01:47:49.114Z,989.73
2022-11-16T01:48:49.102Z,989.82
2022-11-16T01:49:49.090Z,989.79
2022-11-16T01:50:49.081Z,989.76
2022-11-16T01:51:49.071Z,989.75
2022-11-16T01:52:49.056Z,989.77
2022-11-16T01:53:49.046Z,989.77
2022-11-16T01:54:49.045Z,989.73
2022-11-16T01:55:49.028Z,989.69
2022-11-16T01:56:49.014Z,989.65
2022-11-16T01:57:49.002Z,989.64
2022-11-16T01:58:48.994Z,989.7
2022-11-16T01:59:48.985Z,989.62
2022-11-16T02:00:48.979Z,989.68
2022-11-16T02:01:48.963Z,989.63
2022-11-16T02:02:48.955Z,989.57
2022-11-16T02:03:48.943Z,989.58
2022-11-16T02:04:48.930Z,989.57
2022-11-16T02:05:48.925Z,989.59
2022-11-16T02:06:48.911Z,989.6
2022-11-16T02:07:48.905Z,989.57
2022-11-16T02:08:48.894Z,989.59
2022-11-16T02:09:48.885Z,989.53
2022-11-16T02:10:48.868Z,989.55
2022-11-16T02:11:48.857Z,989.51
2022-11-16T02:12:48.842Z,989.57
2022-11-16T02:13:48.835Z,989.55
2022-11-16T02:14:48.826Z,989.54
2022-11-16T02:15:48.818Z,989.55
2022-11-16T02:16:48.811Z,989.52
2022-11-16T02:17:48.792Z,989.52
2022-11-16T02:18:48.787Z,989.47
2022-11-16T02:19:48.773Z,989.5
2022-11-16T02:20:48.762Z,989.5
2022-11-16T02:21:48.756Z,989.56
2022-11-16T02:22:48.738Z,989.56
2022-11-16T02:23:48.731Z,989.48
2022-11-16T02:24:48.719Z,989.52
2022-11-16T02:25:48.714Z,989.46
2022-11-16T02:26:48.696Z,989.49
2022-11-16T02:27:48.687Z,989.49
2022-11-16T02:28:48.678Z,989.42
2022-11-16T02:29:48.669Z,989.4
2022-11-16T02:30:48.659Z,989.38
2022-11-16T02:31:48.644Z,989.4
2022-11-16T02:32:48.638Z,989.4
2022-11-16T02:33:48.624Z,989.31
2022-11-16T02:34:48.615Z,989.35
2022-11-16T02:35:48.606Z,989.31
2022-11-16T02:36:48.589Z,989.37
2022-11-16T02:37:48.583Z,989.35
2022-11-16T02:38:48.572Z,989.3
2022-11-16T02:39:48.564Z,989.35
2022-11-16T02:40:48.551Z,989.3
2022-11-16T02:41:48.541Z,989.35
2022-11-16T02:42:48.528Z,989.32
2022-11-16T02:43:48.521Z,989.28
2022-11-16T02:44:48.507Z,989.24
2022-11-16T02:45:48.494Z,989.28
2022-11-16T02:46:48.492Z,989.2
2022-11-16T02:47:48.477Z,989.22
2022-11-16T02:48:48.464Z,989.21
2022-11-16T02:49:48.455Z,989.22
2022-11-16T02:50:48.440Z,989.24
2022-11-16T02:51:48.428Z,989.21
2022-11-16T02:52:48.423Z,989.23
2022-11-16T02:53:48.413Z,989.2
2022-11-16T02:54:48.402Z,989.12
2022-11-16T02:55:48.387Z,989.18
2022-11-16T02:56:48.384Z,989.15
2022-11-16T02:57:48.364Z,989.12
2022-11-16T02:58:48.359Z,989.13
2022-11-16T02:59:48.344Z,989.07
2022-11-16T03:00:48.335Z,989.03
2022-11-16T03:01:48.323Z,989.02
2022-11-16T03:02:48.313Z,989.08
2022-11-16T03:03:48.305Z,989.08
2022-11-16T03:04:48.293Z,989.13
2022-11-16T03:05:48.289Z,989.09
2022-11-16T03:06:48.273Z,989.09
2022-11-16T03:07:48.266Z,989.03
2022-11-16T03:08:48.250Z,989.05
2022-11-16T03:09:48.242Z,989
2022-11-16T03:10:48.234Z,989.07
2022-11-16T03:11:48.223Z,989.05
2022-11-16T03:12:48.215Z,989.08
2022-11-16T03:13:48.206Z,989.07
2022-11-16T03:14:48.186Z,989.06
2022-11-16T03:15:48.178Z,989.05
2022-11-16T03:16:48.172Z,989.08
2022-11-16T03:17:48.161Z,988.98
2022-11-16T03:18:48.147Z,988.96
2022-11-16T03:19:48.133Z,989.01
2022-11-16T03:20:48.126Z,989
2022-11-16T03:21:48.114Z,989.02
2022-11-16T03:22:48.105Z,989.06
2022-11-16T03:23:48.094Z,989.03
2022-11-16T03:24:48.079Z,989.08
2022-11-16T03:25:48.070Z,989.02
2022-11-16T03:26:48.064Z,989.01
2022-11-16T03:27:48.046Z,989.01
2022-11-16T03:28:48.038Z,989.02
2022-11-16T03:29:48.032Z,989.1
2022-11-16T03:30:48.020Z,989.07
2022-11-16T03:31:48.009Z,989.07
2022-11-16T03:32:47.999Z,989.02
2022-11-16T03:33:47.982Z,989.05
2022-11-16T03:34:47.975Z,988.96
2022-11-16T03:35:47.965Z,989
2022-11-16T03:36:47.957Z,989.01
2022-11-16T03:37:47.941Z,988.97
2022-11-16T03:38:47.929Z,988.98
2022-11-16T03:39:47.917Z,988.98
2022-11-16T03:40:47.907Z,988.9
2022-11-16T03:41:47.898Z,988.94
2022-11-16T03:42:47.889Z,988.92
2022-11-16T03:43:47.879Z,988.94
2022-11-16T03:44:47.861Z,988.9
2022-11-16T03:45:47.852Z,988.86
2022-11-16T03:46:47.850Z,988.92
2022-11-16T03:47:47.833Z,988.93
2022-11-16T03:48:47.821Z,988.91
2022-11-16T03:49:47.815Z,989
2022-11-16T03:50:47.798Z,988.93
2022-11-16T03:51:47.788Z,988.96
2022-11-16T03:52:47.780Z,988.99
2022-11-16T03:53:47.782Z,988.95
2022-11-16T03:54:47.759Z,989.02
2022-11-16T03:55:47.766Z,988.97
2022-11-16T03:56:47.738Z,988.95
2022-11-16T03:57:47.728Z,988.92
2022-11-16T03:58:47.718Z,988.93
2022-11-16T03:59:47.705Z,988.95
2022-11-16T04:00:47.700Z,988.9
2022-11-16T04:01:47.682Z,988.9
2022-11-16T04:02:47.678Z,988.87
2022-11-16T04:03:47.676Z,988.93
2022-11-16T04:04:47.649Z,988.9
2022-11-16T04:05:47.640Z,988.94
2022-11-16T04:06:47.634Z,988.92
2022-11-16T04:07:47.621Z,988.88
2022-11-16T04:08:47.611Z,988.92
2022-11-16T04:09:47.609Z,988.91
2022-11-16T04:10:47.589Z,988.87
2022-11-16T04:11:47.592Z,988.91
2022-11-16T04:12:47.579Z,988.94
2022-11-16T04:13:47.569Z,988.88
2022-11-16T04:14:47.545Z,988.9
2022-11-16T04:15:47.533Z,988.85
2022-11-16T04:16:47.528Z,988.85
2022-11-16T04:17:47.511Z,988.82
2022-11-16T04:18:47.520Z,988.87
2022-11-16T04:19:47.493Z,988.87
2022-11-16T04:20:47.480Z,988.83
2022-11-16T04:21:47.490Z,988.77
2022-11-16T04:22:47.462Z,988.85
2022-11-16T04:23:47.455Z,988.86
2022-11-16T04:24:47.437Z,988.85
2022-11-16T04:25:47.434Z,988.86
2022-11-16T04:26:47.421Z,988.86
2022-11-16T04:27:47.406Z,988.86
2022-11-16T04:28:47.399Z,988.86
2022-11-16T04:29:47.404Z,988.9
2022-11-16T04:30:47.398Z,988.82
2022-11-16T04:31:47.387Z,988.8
2022-11-16T04:32:47.370Z,988.87
2022-11-16T04:33:47.343Z,988.83
2022-11-16T04:34:47.337Z,988.92
2022-11-16T04:35:47.323Z,988.84
2022-11-16T04:36:47.316Z,988.91
2022-11-16T04:37:47.305Z,988.84
2022-11-16T04:38:47.292Z,988.84
2022-11-16T04:39:47.287Z,988.87
2022-11-16T04:40:47.279Z,988.86
2022-11-16T04:41:47.260Z,988.88
2022-11-16T04:42:47.251Z,988.93
2022-11-16T04:43:47.237Z,988.93
2022-11-16T04:44:47.225Z,988.93
2022-11-16T04:45:47.214Z,988.95
2022-11-16T04:46:47.204Z,988.99
2022-11-16T04:47:47.194Z,988.97
2022-11-16T04:48:47.185Z,988.96
2022-11-16T04:49:47.180Z,988.94
2022-11-16T04:50:47.161Z,988.94
2022-11-16T04:51:47.150Z,988.91
2022-11-16T04:52:47.140Z,988.9
2022-11-16T04:53:47.133Z,988.94
2022-11-16T04:54:47.120Z,988.82
2022-11-16T04:55:47.107Z,988.91
2022-11-16T04:56:47.092Z,988.81
2022-11-16T04:57:47.119Z,988.87
2022-11-16T04:58:47.081Z,988.88
2022-11-16T04:59:47.066Z,988.85
2022-11-16T05:00:47.097Z,988.9
2022-11-16T05:01:47.046Z,988.88
2022-11-16T05:02:47.033Z,988.86
2022-11-16T05:03:47.025Z,988.89
2022-11-16T05:04:47.014Z,988.9
2022-11-16T05:05:47.009Z,988.85
2022-11-16T05:06:46.991Z,988.75
2022-11-16T05:07:46.999Z,988.86
2022-11-16T05:08:46.971Z,988.77
2022-11-16T05:09:46.961Z,988.81
2022-11-16T05:10:46.945Z,988.75
2022-11-16T05:11:46.944Z,988.72
2022-11-16T05:12:46.933Z,988.79
2022-11-16T05:13:46.916Z,988.78
2022-11-16T05:14:46.909Z,988.66
2022-11-16T05:15:46.897Z,988.7
2022-11-16T05:16:46.890Z,988.69
2022-11-16T05:17:46.871Z,988.68
2022-11-16T05:18:46.867Z,988.64
2022-11-16T05:19:46.853Z,988.72
2022-11-16T05:20:46.839Z,988.66
2022-11-16T05:21:46.831Z,988.8
2022-11-16T05:22:46.823Z,988.74
2022-11-16T05:23:46.812Z,988.68
2022-11-16T05:24:46.798Z,988.78
2022-11-16T05:25:46.790Z,988.77
2022-11-16T05:26:46.779Z,988.72
2022-11-16T05:27:46.763Z,988.73
2022-11-16T05:28:46.755Z,988.72
2022-11-16T05:29:46.742Z,988.8
2022-11-16T05:30:46.733Z,988.74
2022-11-16T05:31:46.747Z,988.77
2022-11-16T05:32:46.711Z,988.82
2022-11-16T05:33:46.699Z,988.81
2022-11-16T05:34:46.696Z,988.85
2022-11-16T05:35:46.682Z,988.84
2022-11-16T05:36:46.670Z,988.83
2022-11-16T05:37:46.655Z,988.83
2022-11-16T05:38:46.652Z,988.81
2022-11-16T05:39:46.640Z,988.9
2022-11-16T05:40:46.647Z,988.86
2022-11-16T05:41:46.620Z,988.84
2022-11-16T05:42:46.602Z,988.82
2022-11-16T05:43:46.590Z,988.81
2022-11-16T05:44:46.581Z,988.77
2022-11-16T05:45:46.576Z,988.81
2022-11-16T05:46:46.559Z,988.79
2022-11-16T05:47:46.554Z,988.8
2022-11-16T05:48:46.545Z,988.76
2022-11-16T05:49:46.531Z,988.82
2022-11-16T05:50:46.521Z,988.79
2022-11-16T05:51:46.519Z,988.77
2022-11-16T05:52:46.500Z,988.84
2022-11-16T05:53:46.493Z,988.82
2022-11-16T05:54:46.478Z,988.8
2022-11-16T05:55:46.467Z,988.82
2022-11-16T05:56:46.454Z,988.87
2022-11-16T05:57:46.452Z,988.85
2022-11-16T05:58:46.435Z,988.85
2022-11-16T05:59:46.419Z,988.86
2022-11-16T06:00:46.411Z,988.84
2022-11-16T06:01:46.399Z,988.8
2022-11-16T06:02:46.386Z,988.88
2022-11-16T06:03:46.383Z,988.86
2022-11-16T06:04:46.370Z,988.83
2022-11-16T06:05:46.353Z,988.88
2022-11-16T06:06:46.346Z,988.82
2022-11-16T06:07:46.335Z,988.92
2022-11-16T06:08:46.323Z,988.88
2022-11-16T06:09:46.318Z,988.87
2022-11-16T06:10:46.304Z,988.91
2022-11-16T06:11:46.294Z,988.85
2022-11-16T06:12:46.284Z,988.88
2022-11-16T06:13:46.266Z,988.93
2022-11-16T06:14:46.262Z,988.92
2022-11-16T06:15:46.249Z,988.9
2022-11-16T06:16:46.240Z,988.95
2022-11-16T06:17:46.230Z,988.94
2022-11-16T06:18:46.217Z,988.96
2022-11-16T06:19:46.205Z,988.99
2022-11-16T06:20:46.197Z,989.02
2022-11-16T06:21:46.186Z,989.01
2022-11-16T06:22:46.177Z,989.01
2022-11-16T06:23:46.163Z,989.02
2022-11-16T06:24:46.179Z,989.04
2022-11-16T06:25:46.139Z,989.01
2022-11-16T06:26:46.142Z,989
2022-11-16T06:27:46.131Z,989.06
2022-11-16T06:28:46.109Z,989.08
2022-11-16T06:29:46.097Z,989.06
2022-11-16T06:30:46.095Z,989.06
2022-11-16T06:31:46.080Z,989.03
2022-11-16T06:32:46.063Z,989.05
2022-11-16T06:33:46.055Z,989.03
2022-11-16T06:34:46.043Z,989.04
2022-11-16T06:35:46.032Z,989.1
2022-11-16T06:36:46.027Z,989.07
2022-11-16T06:37:46.023Z,989.08
2022-11-16T06:38:46.006Z,989.09
2022-11-16T06:39:45.995Z,989.11
2022-11-16T06:40:45.981Z,989.17
2022-11-16T06:41:45.971Z,989.21
2022-11-16T06:42:45.960Z,989.15
2022-11-16T06:43:45.947Z,989.19
2022-11-16T06:44:45.943Z,989.14
2022-11-16T06:45:45.926Z,989.19
2022-11-16T06:46:45.921Z,989.2
2022-11-16T06:47:45.906Z,989.2
2022-11-16T06:48:45.904Z,989.27
2022-11-16T06:49:45.901Z,989.24
2022-11-16T06:50:45.873Z,989.23
2022-11-16T06:51:45.863Z,989.27
2022-11-16T06:52:45.864Z,989.25
2022-11-16T06:53:45.845Z,989.26
2022-11-16T06:54:45.831Z,989.26
2022-11-16T06:55:45.818Z,989.2
2022-11-16T06:56:45.806Z,989.27
2022-11-16T06:57:45.798Z,989.36
2022-11-16T06:58:45.787Z,989.31
2022-11-16T06:59:45.778Z,989.33
2022-11-16T07:00:45.778Z,989.29
2022-11-16T07:01:45.756Z,989.34
2022-11-16T07:02:45.760Z,989.35
2022-11-16T07:03:45.735Z,989.38
2022-11-16T07:04:45.720Z,989.32
2022-11-16T07:05:45.711Z,989.36
2022-11-16T07:06:45.699Z,989.43
2022-11-16T07:07:45.760Z,989.44
2022-11-16T07:08:45.687Z,989.42
2022-11-16T07:09:45.673Z,989.45
2022-11-16T07:10:45.669Z,989.38
2022-11-16T07:11:45.645Z,989.4
2022-11-16T07:12:45.639Z,989.45
2022-11-16T07:13:45.632Z,989.4
2022-11-16T07:14:45.702Z,989.41
2022-11-16T07:15:45.621Z,989.44
2022-11-16T07:16:45.604Z,989.46
2022-11-16T07:17:45.587Z,989.36
2022-11-16T07:18:45.570Z,989.45
2022-11-16T07:19:45.565Z,989.45
2022-11-16T07:20:45.551Z,989.5
2022-11-16T07:21:45.538Z,989.48
2022-11-16T07:22:45.531Z,989.54
2022-11-16T07:23:45.520Z,989.49
2022-11-16T07:24:45.541Z,989.53
2022-11-16T07:25:45.501Z,989.57
2022-11-16T07:26:45.488Z,989.58
2022-11-16T07:27:45.476Z,989.61
2022-11-16T07:28:45.463Z,989.58
2022-11-16T07:29:45.456Z,989.61
2022-11-16T07:30:45.449Z,989.61
2022-11-16T07:31:45.438Z,989.56
2022-11-16T07:32:45.426Z,989.67
2022-11-16T07:33:45.409Z,989.63
2022-11-16T07:34:45.403Z,989.65
2022-11-16T07:35:45.389Z,989.66
2022-11-16T07:36:45.376Z,989.64
2022-11-16T07:37:45.367Z,989.66
2022-11-16T07:38:45.371Z,989.73
2022-11-16T07:39:45.355Z,989.75
2022-11-16T07:40:45.339Z,989.69
2022-11-16T07:41:45.338Z,989.74
2022-11-16T07:42:45.314Z,989.74
2022-11-16T07:43:45.306Z,989.75
2022-11-16T07:44:45.291Z,989.74
2022-11-16T07:45:45.283Z,989.74
2022-11-16T07:46:45.282Z,989.74
2022-11-16T07:47:45.271Z,989.77
2022-11-16T07:48:45.260Z,989.75
2022-11-16T07:49:45.255Z,989.76
2022-11-16T07:50:45.265Z,989.76
2022-11-16T07:51:45.272Z,989.82
2022-11-16T07:52:45.202Z,989.81
2022-11-16T07:53:45.199Z,989.81
2022-11-16T07:54:45.184Z,989.88
2022-11-16T07:55:45.175Z,989.86
2022-11-16T07:56:45.164Z,989.81
2022-11-16T07:57:45.161Z,989.81
2022-11-16T07:58:45.158Z,989.78
2022-11-16T07:59:45.153Z,989.79
2022-11-16T08:00:45.130Z,989.76
2022-11-16T08:01:45.123Z,989.84
2022-11-16T08:02:45.112Z,989.86
2022-11-16T08:03:45.115Z,989.84
2022-11-16T08:04:45.123Z,989.83
2022-11-16T08:05:45.089Z,989.86
2022-11-16T08:06:45.085Z,989.86
2022-11-16T08:07:45.048Z,989.82
2022-11-16T08:08:45.039Z,989.86
2022-11-16T08:09:45.029Z,989.85
2022-11-16T08:10:45.020Z,989.85
2022-11-16T08:11:45.007Z,989.9
2022-11-16T08:12:44.994Z,989.89
2022-11-16T08:13:44.992Z,989.92
2022-11-16T08:14:44.986Z,989.9
2022-11-16T08:15:44.977Z,989.88
2022-11-16T08:16:44.959Z,989.86
2022-11-16T08:17:44.941Z,989.88
2022-11-16T08:18:44.943Z,989.84
2022-11-16T08:19:44.931Z,989.93
2022-11-16T08:20:44.919Z,989.85
2022-11-16T08:21:44.906Z,989.87
2022-11-16T08:22:44.895Z,989.88
2022-11-16T08:23:44.883Z,989.91
2022-11-16T08:24:44.868Z,989.96
2022-11-16T08:25:44.859Z,989.96
2022-11-16T08:26:44.847Z,990
2022-11-16T08:27:44.839Z,989.96
2022-11-16T08:28:44.828Z,989.93
2022-11-16T08:29:44.812Z,989.97
2022-11-16T08:30:44.810Z,990.02
2022-11-16T08:31:44.793Z,990.01
2022-11-16T08:32:44.785Z,989.99
2022-11-16T08:33:44.770Z,989.96
2022-11-16T08:34:44.771Z,990.07
2022-11-16T08:35:44.749Z,990.02
2022-11-16T08:36:44.746Z,990.03
2022-11-16T08:37:44.769Z,990.04
2022-11-16T08:38:44.719Z,990.05
2022-11-16T08:39:44.720Z,990.07
2022-11-16T08:40:44.697Z,990.02
2022-11-16T08:41:44.689Z,990.05
2022-11-16T08:42:44.675Z,990.02
2022-11-16T08:43:44.673Z,990.03
2022-11-16T08:44:44.657Z,990.05
2022-11-16T08:45:44.657Z,990.07
2022-11-16T08:46:44.643Z,990.03
2022-11-16T08:47:44.669Z,990.1
2022-11-16T08:48:44.616Z,990.1
2022-11-16T08:49:44.615Z,990.08
2022-11-16T08:50:44.601Z,990.08
2022-11-16T08:51:44.586Z,990.09
2022-11-16T08:52:44.574Z,990.11
2022-11-16T08:53:44.563Z,990.07
2022-11-16T08:54:44.554Z,990.07
2022-11-16T08:55:44.542Z,990.15
2022-11-16T08:56:44.539Z,990.13
2022-11-16T08:57:44.524Z,990.07
2022-11-16T08:58:44.523Z,990.11
2022-11-16T08:59:44.513Z,990.07
2022-11-16T09:00:44.518Z,990.14
2022-11-16T09:01:44.484Z,990.1
2022-11-16T09:02:44.475Z,990.06
2022-11-16T09:03:44.467Z,990.08
2022-11-16T09:04:44.449Z,990.08
2022-11-16T09:05:44.437Z,990.06
2022-11-16T09:06:44.431Z,990.15
2022-11-16T09:07:44.445Z,990.12
2022-11-16T09:08:44.405Z,990.11
2022-11-16T09:09:44.398Z,990.11
2022-11-16T09:10:44.395Z,990.09
2022-11-16T09:11:44.377Z,990.1
2022-11-16T09:12:44.364Z,990.14
2022-11-16T09:13:44.354Z,990.12
2022-11-16T09:14:44.347Z,990.11
2022-11-16T09:15:44.330Z,990.1
2022-11-16T09:16:44.330Z,990.12
2022-11-16T09:17:44.316Z,990.12
2022-11-16T09:18:44.307Z,990.15
2022-11-16T09:19:44.264Z,990.14
2022-11-16T09:20:44.261Z,990.15
2022-11-16T09:21:44.244Z,990.12
2022-11-16T09:22:44.234Z,990.19
2022-11-16T09:23:44.229Z,990.16
2022-11-16T09:24:44.231Z,990.19
2022-11-16T09:25:44.216Z,990.22
2022-11-16T09:26:44.227Z,990.22
2022-11-16T09:27:44.212Z,990.23
2022-11-16T09:28:44.211Z,990.27
2022-11-16T09:29:44.214Z,990.25
2022-11-16T09:30:44.169Z,990.22
2022-11-16T09:31:44.143Z,990.22
2022-11-16T09:32:44.134Z,990.31
2022-11-16T09:33:44.119Z,990.26
2022-11-16T09:34:44.105Z,990.26
2022-11-16T09:35:44.103Z,990.28
2022-11-16T09:36:44.122Z,990.25
2022-11-16T09:37:44.147Z,990.23
2022-11-16T09:39:44.153Z,990.21
2022-11-16T09:40:44.073Z,990.31
2022-11-16T09:41:44.065Z,990.27
2022-11-16T09:42:44.045Z,990.29
2022-11-16T09:43:44.103Z,990.21
2022-11-16T09:44:44.003Z,990.25
2022-11-16T09:45:43.991Z,990.22
2022-11-16T09:46:44.026Z,990.27
2022-11-16T09:47:43.981Z,990.23
2022-11-16T09:48:43.972Z,990.28
2022-11-16T09:49:43.955Z,990.25
2022-11-16T09:50:43.984Z,990.27
2022-11-16T09:51:43.951Z,990.26
2022-11-16T09:52:43.943Z,990.26
2022-11-16T09:53:43.930Z,990.29
2022-11-16T09:54:44.006Z,990.3
2022-11-16T09:55:43.915Z,990.23
2022-11-16T09:56:43.919Z,990.27
2022-11-16T09:57:43.891Z,990.31
2022-11-16T09:58:43.888Z,990.24
2022-11-16T09:59:43.908Z,990.28
2022-11-16T10:00:43.856Z,990.29
2022-11-16T10:01:43.822Z,990.24
2022-11-16T10:02:43.814Z,990.29
2022-11-16T10:03:43.806Z,990.32
2022-11-16T10:04:43.821Z,990.28
2022-11-16T10:05:43.782Z,990.36
2022-11-16T10:06:43.770Z,990.3
2022-11-16T10:07:43.760Z,990.33
2022-11-16T10:08:43.779Z,990.33
2022-11-16T10:09:43.787Z,990.39
2022-11-16T10:10:43.728Z,990.37
2022-11-16T10:11:43.725Z,990.41
2022-11-16T10:12:43.710Z,990.36
2022-11-16T10:13:43.703Z,990.33
2022-11-16T10:14:43.686Z,990.41
2022-11-16T10:15:43.677Z,990.37
2022-11-16T10:16:43.707Z,990.45
2022-11-16T10:17:45.414Z,990.35
2022-11-16T10:18:43.658Z,990.39
2022-11-16T10:19:43.639Z,990.36
2022-11-16T10:20:43.637Z,990.4
2022-11-16T10:21:43.620Z,990.38
2022-11-16T10:22:43.604Z,990.33
2022-11-16T10:23:43.635Z,990.35
2022-11-16T10:24:43.579Z,990.39
2022-11-16T10:25:43.572Z,990.36
2022-11-16T10:26:43.566Z,990.33
2022-11-16T10:27:43.554Z,990.29
2022-11-16T10:28:43.543Z,990.3
2022-11-16T10:29:43.530Z,990.23
2022-11-16T10:30:43.524Z,990.26
2022-11-16T10:31:43.506Z,990.25
2022-11-16T10:32:43.496Z,990.27
2022-11-16T10:33:43.488Z,990.21
2022-11-16T10:34:43.485Z,990.24
2022-11-16T10:35:43.490Z,990.23
2022-11-16T10:36:43.454Z,990.27
2022-11-16T10:37:43.447Z,990.31
2022-11-16T10:38:43.444Z,990.31
2022-11-16T10:39:43.422Z,990.34
2022-11-16T10:40:43.414Z,990.32
2022-11-16T10:41:43.410Z,990.27
2022-11-16T10:42:43.408Z,990.28
2022-11-16T10:43:43.381Z,990.25
2022-11-16T10:44:43.370Z,990.24
2022-11-16T10:45:43.383Z,990.22
2022-11-16T10:46:43.351Z,990.2
2022-11-16T10:47:43.341Z,990.23
2022-11-16T10:48:43.331Z,990.16
2022-11-16T10:49:43.317Z,990.2
2022-11-16T10:50:43.307Z,990.25
2022-11-16T10:51:43.297Z,990.22
2022-11-16T10:52:43.285Z,990.18
2022-11-16T10:53:43.283Z,990.22
2022-11-16T10:54:43.272Z,990.18
2022-11-16T10:55:43.259Z,990.17
2022-11-16T10:56:43.248Z,990.15
2022-11-16T10:57:43.257Z,990.18
2022-11-16T10:58:43.221Z,990.15
2022-11-16T10:59:43.209Z,990.12
2022-11-16T11:00:43.257Z,990.11
2022-11-16T11:01:43.192Z,990.15
2022-11-16T11:02:43.180Z,990.13
2022-11-16T11:03:43.175Z,990.17
2022-11-16T11:04:43.167Z,990.13
2022-11-16T11:05:43.154Z,990.17
2022-11-16T11:06:43.138Z,990.12
2022-11-16T11:07:43.136Z,990.13
2022-11-16T11:08:43.114Z,990.17
2022-11-16T11:09:43.116Z,990.17
2022-11-16T11:10:43.107Z,990.15
2022-11-16T11:11:43.084Z,990.18
2022-11-16T11:12:43.071Z,990.16
2022-11-16T11:13:43.061Z,990.22
2022-11-16T11:14:43.056Z,990.18
2022-11-16T11:15:43.046Z,990.19
2022-11-16T11:16:43.030Z,990.18
2022-11-16T11:17:43.016Z,990.23
2022-11-16T11:18:43.011Z,990.22
2022-11-16T11:19:43.002Z,990.23
2022-11-16T11:20:43.005Z,990.27
2022-11-16T11:21:42.989Z,990.27
2022-11-16T11:22:42.969Z,990.25
2022-11-16T11:23:42.962Z,990.32
2022-11-16T11:24:42.953Z,990.21
2022-11-16T11:25:42.945Z,990.27
2022-11-16T11:26:42.924Z,990.24
2022-11-16T11:27:42.916Z,990.25
2022-11-16T11:28:42.941Z,990.3
2022-11-16T11:29:42.894Z,990.24
2022-11-16T11:30:42.887Z,990.23
2022-11-16T11:31:42.874Z,990.22
2022-11-16T11:32:42.878Z,990.18
2022-11-16T11:33:42.854Z,990.2
2022-11-16T11:34:42.843Z,990.18
2022-11-16T11:35:42.832Z,990.16
2022-11-16T11:36:42.818Z,990.18
2022-11-16T11:37:42.817Z,990.11
2022-11-16T11:38:42.831Z,990.11
2022-11-16T11:39:42.830Z,990.08
2022-11-16T11:40:42.800Z,990.1
2022-11-16T11:41:42.789Z,990.11
2022-11-16T11:42:42.760Z,990.07
2022-11-16T11:43:42.773Z,990.15
2022-11-16T11:44:42.770Z,990.12
2022-11-16T11:45:42.789Z,990.07
2022-11-16T11:46:42.742Z,990.11
2022-11-16T11:47:42.725Z,990.09
2022-11-16T11:48:42.695Z,990.09
2022-11-16T11:49:42.685Z,990.07
2022-11-16T11:50:42.694Z,990.15
2022-11-16T11:51:42.677Z,990.1
2022-11-16T11:52:42.789Z,990.13
2022-11-16T11:53:42.639Z,990.09
2022-11-16T11:54:42.653Z,990.14
2022-11-16T11:55:42.637Z,990.15
2022-11-16T11:56:42.608Z,990.1
2022-11-16T11:57:42.594Z,990.11
2022-11-16T11:58:42.588Z,990.15
2022-11-16T11:59:42.575Z,990.09
2022-11-16T12:00:42.566Z,990.17
2022-11-16T12:01:42.565Z,990.09
2022-11-16T12:02:42.543Z,990.09
2022-11-16T12:03:42.567Z,990.11
2022-11-16T12:04:42.519Z,990.17
2022-11-16T12:05:42.525Z,990.08
2022-11-16T12:06:42.507Z,990.05
2022-11-16T12:07:42.491Z,989.98
2022-11-16T12:08:42.482Z,989.99
2022-11-16T12:09:42.467Z,989.92
2022-11-16T12:10:42.471Z,990.02
2022-11-16T12:11:42.448Z,989.96
2022-11-16T12:12:42.438Z,990.02
2022-11-16T12:13:42.429Z,989.95
2022-11-16T12:14:42.412Z,990.01
2022-11-16T12:15:42.416Z,989.97
2022-11-16T12:16:42.395Z,989.98
2022-11-16T12:17:42.381Z,989.93
2022-11-16T12:18:42.373Z,989.92
2022-11-16T12:19:42.360Z,989.88
2022-11-16T12:20:42.356Z,989.99
2022-11-16T12:21:42.347Z,989.93
2022-11-16T12:22:42.327Z,989.93
2022-11-16T12:23:42.320Z,989.96
2022-11-16T12:24:42.323Z,989.99
2022-11-16T12:25:42.300Z,989.99
2022-11-16T12:26:42.286Z,989.97
2022-11-16T12:27:42.278Z,989.96
2022-11-16T12:28:42.277Z,989.93
2022-11-16T12:29:42.251Z,989.93
2022-11-16T12:30:42.247Z,989.92
2022-11-16T12:31:42.253Z,989.94
2022-11-16T12:32:42.242Z,989.94